Terminal Aerodrome Forecast
Issued by NWS

Home | Current Version | Previous Version | Text Only | Print | Product List | Glossary On
Versions: 1 2 3 4 5 6 7 8 9 10 11 12 13 14 15
000
FTUS46 KSGX 302300
TAFSNA
TAF
KSNA 302339Z 3100/3124 22007KT P6SM SCT019 BKN150
     FM310200 VRB04KT P6SM SCT015 BKN150
     FM311100 VRB03KT P6SM OVC015
     FM311500 VRB04KT P6SM OVC020
     FM312100 22008KT P6SM BKN025=

USA.gov is the U.S. government's official web portal to all federal, state and local government web resources and services.